GAP2239 RPVM-RPVA
Flight info
| Callsign | GAP2239 |
|---|---|
| Flight time | 0h 22m |
| Altitude | 15000 |
| Route | POXOS4P POXOS POXOS2R |
| Aircraft | DH8D/M-SDE2E3FGRY/H |
Departure
| Time | 2026-05-06 11:37 |
|---|---|
| Airport | Mactan Cebu International Airport (RPVM) |
Arrival
| Time | 2026-05-06 12:00 |
|---|---|
| Airport | Daniel Z. Romualdez Airport (RPVA) |
| Time | Latitude | Longitude | Altitude | Speed | Heading |
|---|---|---|---|---|---|
| 2026-05-06 11:19 | 10.31784 | 123.98189 | 38 ft | 0 kts | 314° |
| 2026-05-06 11:25 | 10.31784 | 123.98188 | 38 ft | 0 kts | 314° |
| 2026-05-06 11:25 | 10.31783 | 123.98190 | 38 ft | 1 kts | 314° |
| 2026-05-06 11:26 | 10.31774 | 123.98199 | 38 ft | 0 kts | 314° |
| 2026-05-06 11:26 | 10.31767 | 123.98209 | 38 ft | 2 kts | 294° |
| 2026-05-06 11:26 | 10.31764 | 123.98223 | 38 ft | 2 kts | 268° |
| 2026-05-06 11:26 | 10.31765 | 123.98233 | 38 ft | 0 kts | 251° |
| 2026-05-06 11:27 | 10.31754 | 123.98215 | 38 ft | 4 kts | 223° |
| 2026-05-06 11:27 | 10.31721 | 123.98195 | 38 ft | 7 kts | 210° |
| 2026-05-06 11:27 | 10.31695 | 123.98177 | 38 ft | 1 kts | 223° |
| 2026-05-06 11:27 | 10.31691 | 123.98173 | 38 ft | 0 kts | 226° |
| 2026-05-06 11:28 | 10.31690 | 123.98173 | 38 ft | 0 kts | 226° |
| 2026-05-06 11:29 | 10.31690 | 123.98172 | 38 ft | 0 kts | 226° |
| 2026-05-06 11:29 | 10.31689 | 123.98171 | 38 ft | 1 kts | 226° |
| 2026-05-06 11:30 | 10.31675 | 123.98157 | 38 ft | 3 kts | 223° |
| 2026-05-06 11:30 | 10.31649 | 123.98132 | 38 ft | 6 kts | 222° |
| 2026-05-06 11:30 | 10.31607 | 123.98116 | 38 ft | 7 kts | 171° |
| 2026-05-06 11:30 | 10.31568 | 123.98143 | 38 ft | 6 kts | 134° |
| 2026-05-06 11:31 | 10.31537 | 123.98176 | 38 ft | 6 kts | 134° |
| 2026-05-06 11:31 | 10.31500 | 123.98214 | 38 ft | 8 kts | 135° |
| 2026-05-06 11:31 | 10.31454 | 123.98229 | 38 ft | 7 kts | 206° |
| 2026-05-06 11:31 | 10.31406 | 123.98186 | 38 ft | 11 kts | 224° |
| 2026-05-06 11:32 | 10.31340 | 123.98119 | 38 ft | 15 kts | 225° |
| 2026-05-06 11:32 | 10.31257 | 123.98036 | 38 ft | 18 kts | 224° |
| 2026-05-06 11:32 | 10.31161 | 123.97939 | 38 ft | 20 kts | 225° |
| 2026-05-06 11:32 | 10.31052 | 123.97829 | 38 ft | 22 kts | 225° |
| 2026-05-06 11:33 | 10.30936 | 123.97714 | 38 ft | 24 kts | 225° |
| 2026-05-06 11:33 | 10.30818 | 123.97594 | 38 ft | 22 kts | 225° |
| 2026-05-06 11:33 | 10.30712 | 123.97487 | 38 ft | 20 kts | 224° |
| 2026-05-06 11:33 | 10.30617 | 123.97392 | 38 ft | 18 kts | 225° |
| 2026-05-06 11:34 | 10.30527 | 123.97302 | 38 ft | 17 kts | 224° |
| 2026-05-06 11:34 | 10.30468 | 123.97244 | 38 ft | 6 kts | 224° |
| 2026-05-06 11:34 | 10.30448 | 123.97224 | 38 ft | 4 kts | 224° |
| 2026-05-06 11:34 | 10.30440 | 123.97215 | 38 ft | 6 kts | 224° |
| 2026-05-06 11:35 | 10.30266 | 123.97246 | 38 ft | 7 kts | 135° |
| 2026-05-06 11:35 | 10.30246 | 123.97266 | 38 ft | 2 kts | 134° |
| 2026-05-06 11:36 | 10.30241 | 123.97270 | 38 ft | 2 kts | 135° |
| 2026-05-06 11:36 | 10.30174 | 123.97359 | 38 ft | 1 kts | 45° |
| 2026-05-06 11:37 | 10.30235 | 123.97420 | 38 ft | 39 kts | 45° |
| 2026-05-06 11:37 | 10.30655 | 123.97842 | 38 ft | 123 kts | 44° |
| 2026-05-06 11:37 | 10.31353 | 123.98553 | 241 ft | 152 kts | 45° |
| 2026-05-06 11:37 | 10.32115 | 123.99348 | 752 ft | 165 kts | 45° |
| 2026-05-06 11:38 | 10.32934 | 124.00185 | 1377 ft | 172 kts | 45° |
| 2026-05-06 11:38 | 10.33792 | 124.01060 | 1996 ft | 178 kts | 45° |
| 2026-05-06 11:38 | 10.34660 | 124.01984 | 2495 ft | 183 kts | 47° |
| 2026-05-06 11:38 | 10.35509 | 124.02950 | 3037 ft | 185 kts | 48° |
| 2026-05-06 11:39 | 10.36370 | 124.03931 | 3577 ft | 186 kts | 48° |
| 2026-05-06 11:39 | 10.36944 | 124.04583 | 3925 ft | 188 kts | 48° |
| 2026-05-06 11:39 | 10.37519 | 124.05238 | 4263 ft | 190 kts | 48° |
| 2026-05-06 11:40 | 10.39792 | 124.07823 | 5703 ft | 192 kts | 49° |
| 2026-05-06 11:40 | 10.40977 | 124.09171 | 6502 ft | 194 kts | 48° |
| 2026-05-06 11:40 | 10.41881 | 124.10200 | 7118 ft | 195 kts | 48° |
| 2026-05-06 11:40 | 10.42781 | 124.11224 | 7711 ft | 199 kts | 49° |
| 2026-05-06 11:41 | 10.43703 | 124.12273 | 8338 ft | 200 kts | 49° |
| 2026-05-06 11:41 | 10.44634 | 124.13332 | 8936 ft | 203 kts | 49° |
| 2026-05-06 11:41 | 10.45575 | 124.14402 | 9493 ft | 206 kts | 49° |
| 2026-05-06 11:41 | 10.46527 | 124.15486 | 10103 ft | 208 kts | 49° |
| 2026-05-06 11:42 | 10.47493 | 124.16585 | 10684 ft | 216 kts | 49° |
| 2026-05-06 11:42 | 10.48531 | 124.17766 | 11101 ft | 232 kts | 49° |
| 2026-05-06 11:42 | 10.49641 | 124.19024 | 11646 ft | 242 kts | 49° |
| 2026-05-06 11:42 | 10.50771 | 124.20306 | 12290 ft | 247 kts | 49° |
| 2026-05-06 11:43 | 10.51917 | 124.21607 | 12981 ft | 250 kts | 49° |
| 2026-05-06 11:43 | 10.53077 | 124.22923 | 13650 ft | 254 kts | 49° |
| 2026-05-06 11:43 | 10.54267 | 124.24276 | 14348 ft | 258 kts | 49° |
| 2026-05-06 11:44 | 10.56838 | 124.27202 | 14802 ft | 302 kts | 49° |
| 2026-05-06 11:44 | 10.58307 | 124.28873 | 14834 ft | 324 kts | 49° |
| 2026-05-06 11:44 | 10.59856 | 124.30633 | 14837 ft | 341 kts | 49° |
| 2026-05-06 11:44 | 10.61454 | 124.32443 | 14822 ft | 344 kts | 49° |
| 2026-05-06 11:45 | 10.63051 | 124.34252 | 14824 ft | 345 kts | 49° |
| 2026-05-06 11:45 | 10.64125 | 124.35471 | 14824 ft | 346 kts | 49° |
| 2026-05-06 11:45 | 10.66261 | 124.37897 | 14825 ft | 347 kts | 49° |
| 2026-05-06 11:45 | 10.67890 | 124.39748 | 14825 ft | 347 kts | 49° |
| 2026-05-06 11:46 | 10.69502 | 124.41582 | 14823 ft | 348 kts | 49° |
| 2026-05-06 11:46 | 10.71097 | 124.43397 | 14818 ft | 346 kts | 49° |
| 2026-05-06 11:46 | 10.72698 | 124.45218 | 14824 ft | 343 kts | 49° |
| 2026-05-06 11:46 | 10.74276 | 124.47014 | 14827 ft | 341 kts | 49° |
| 2026-05-06 11:47 | 10.75863 | 124.48822 | 14830 ft | 339 kts | 49° |
| 2026-05-06 11:47 | 10.77438 | 124.50616 | 14826 ft | 339 kts | 49° |
| 2026-05-06 11:47 | 10.78997 | 124.52386 | 14831 ft | 340 kts | 49° |
| 2026-05-06 11:47 | 10.80585 | 124.54191 | 14829 ft | 341 kts | 49° |
| 2026-05-06 11:48 | 10.82176 | 124.55999 | 14584 ft | 341 kts | 49° |
| 2026-05-06 11:48 | 10.83736 | 124.57772 | 14197 ft | 337 kts | 49° |
| 2026-05-06 11:48 | 10.85313 | 124.59566 | 13753 ft | 335 kts | 49° |
| 2026-05-06 11:48 | 10.86772 | 124.61371 | 13241 ft | 332 kts | 57° |
| 2026-05-06 11:49 | 10.87509 | 124.63532 | 12960 ft | 319 kts | 79° |
| 2026-05-06 11:49 | 10.87854 | 124.65782 | 12550 ft | 320 kts | 81° |
| 2026-05-06 11:49 | 10.88180 | 124.68013 | 12117 ft | 320 kts | 81° |
| 2026-05-06 11:49 | 10.88499 | 124.70242 | 11684 ft | 316 kts | 81° |
| 2026-05-06 11:50 | 10.88810 | 124.72401 | 11257 ft | 303 kts | 81° |
| 2026-05-06 11:50 | 10.89108 | 124.74471 | 10850 ft | 290 kts | 81° |
| 2026-05-06 11:50 | 10.89390 | 124.76445 | 10462 ft | 279 kts | 81° |
| 2026-05-06 11:50 | 10.89663 | 124.78351 | 10084 ft | 270 kts | 80° |
| 2026-05-06 11:51 | 10.89929 | 124.80218 | 9714 ft | 265 kts | 80° |
| 2026-05-06 11:51 | 10.90191 | 124.82063 | 9352 ft | 262 kts | 80° |
| 2026-05-06 11:51 | 10.90453 | 124.83893 | 8992 ft | 261 kts | 80° |
| 2026-05-06 11:51 | 10.90540 | 124.84508 | 8871 ft | 260 kts | 80° |
| 2026-05-06 11:53 | 10.91986 | 124.94619 | 6851 ft | 256 kts | 79° |
| 2026-05-06 11:53 | 10.92243 | 124.96422 | 6490 ft | 256 kts | 79° |
| 2026-05-06 11:53 | 10.92505 | 124.98198 | 6101 ft | 256 kts | 77° |
| 2026-05-06 11:53 | 10.93218 | 124.99824 | 5518 ft | 253 kts | 46° |
| 2026-05-06 11:54 | 10.94713 | 125.00643 | 5218 ft | 238 kts | 13° |
| 2026-05-06 11:54 | 10.96323 | 125.00847 | 4912 ft | 228 kts | 7° |
| 2026-05-06 11:54 | 10.97864 | 125.00983 | 4609 ft | 219 kts | 6° |
| 2026-05-06 11:54 | 10.99370 | 125.01103 | 4307 ft | 209 kts | 6° |
| 2026-05-06 11:55 | 11.00786 | 125.01211 | 4023 ft | 199 kts | 6° |
| 2026-05-06 11:55 | 11.02152 | 125.01314 | 3755 ft | 193 kts | 6° |
| 2026-05-06 11:55 | 11.03481 | 125.01414 | 3503 ft | 189 kts | 6° |
| 2026-05-06 11:55 | 11.04800 | 125.01511 | 3258 ft | 188 kts | 6° |
| 2026-05-06 11:56 | 11.06117 | 125.01608 | 3016 ft | 190 kts | 6° |
| 2026-05-06 11:56 | 11.07439 | 125.01701 | 2770 ft | 191 kts | 6° |
| 2026-05-06 11:56 | 11.08765 | 125.01792 | 2519 ft | 190 kts | 6° |
| 2026-05-06 11:56 | 11.10069 | 125.01881 | 2263 ft | 180 kts | 6° |
| 2026-05-06 11:57 | 11.11243 | 125.01953 | 2045 ft | 157 kts | 7° |
| 2026-05-06 11:57 | 11.12264 | 125.02020 | 1871 ft | 135 kts | 8° |
| 2026-05-06 11:57 | 11.13181 | 125.02088 | 1693 ft | 130 kts | 9° |
| 2026-05-06 11:57 | 11.14074 | 125.02161 | 1515 ft | 127 kts | 9° |
| 2026-05-06 11:58 | 11.14972 | 125.02235 | 1358 ft | 129 kts | 9° |
| 2026-05-06 11:58 | 11.15875 | 125.02307 | 1181 ft | 131 kts | 8° |
| 2026-05-06 11:58 | 11.16792 | 125.02374 | 1009 ft | 132 kts | 8° |
| 2026-05-06 11:58 | 11.17719 | 125.02438 | 836 ft | 132 kts | 7° |
| 2026-05-06 11:59 | 11.18643 | 125.02499 | 687 ft | 131 kts | 7° |
| 2026-05-06 11:59 | 11.19557 | 125.02550 | 510 ft | 132 kts | 6° |
| 2026-05-06 11:59 | 11.20482 | 125.02599 | 312 ft | 133 kts | 8° |
| 2026-05-06 11:59 | 11.21406 | 125.02679 | 120 ft | 130 kts | 7° |
| 2026-05-06 12:00 | 11.22305 | 125.02742 | 23 ft | 123 kts | 6° |
| 2026-05-06 12:00 | 11.22955 | 125.02789 | 21 ft | 65 kts | 4° |
| 2026-05-06 12:00 | 11.23335 | 125.02814 | 20 ft | 45 kts | 4° |
| 2026-05-06 12:00 | 11.23573 | 125.02830 | 20 ft | 18 kts | 4° |
| 2026-05-06 12:01 | 11.23677 | 125.02810 | 20 ft | 10 kts | 346° |
| 2026-05-06 12:01 | 11.23701 | 125.02831 | 20 ft | 3 kts | 124° |
| 2026-05-06 12:01 | 11.23665 | 125.02835 | 20 ft | 8 kts | 184° |
| 2026-05-06 12:01 | 11.23585 | 125.02831 | 20 ft | 14 kts | 184° |
| 2026-05-06 12:02 | 11.23468 | 125.02822 | 20 ft | 18 kts | 184° |
| 2026-05-06 12:02 | 11.23325 | 125.02812 | 20 ft | 22 kts | 183° |
| 2026-05-06 12:02 | 11.23217 | 125.02805 | 20 ft | 24 kts | 184° |
| 2026-05-06 12:02 | 11.22978 | 125.02789 | 21 ft | 26 kts | 184° |
| 2026-05-06 12:03 | 11.22914 | 125.02785 | 21 ft | 27 kts | 184° |
| 2026-05-06 12:03 | 11.22615 | 125.02765 | 22 ft | 17 kts | 183° |
| 2026-05-06 12:03 | 11.22557 | 125.02744 | 22 ft | 6 kts | 270° |
| 2026-05-06 12:03 | 11.22590 | 125.02692 | 22 ft | 9 kts | 316° |
| 2026-05-06 12:04 | 11.22630 | 125.02653 | 22 ft | 3 kts | 316° |
| 2026-05-06 12:04 | 11.22638 | 125.02646 | 21 ft | 0 kts | 316° |